sensor_id;sensor_type;location;lat;lon;timestamp;pressure;altitude;pressure_sealevel;temperature;humidity
59608;BME280;45426;44.726;10.390;2022-12-26T09:47:42;101583.63;;;20.77;100.00
59608;BME280;45426;44.726;10.390;2022-12-26T09:50:15;101582.53;;;20.05;100.00
59608;BME280;45426;44.726;10.390;2022-12-26T09:58:32;101573.28;;;19.08;100.00
59608;BME280;45426;44.726;10.390;2022-12-26T10:01:14;101562.72;;;20.49;100.00
59608;BME280;45426;44.726;10.390;2022-12-26T10:04:06;101580.66;;;18.33;100.00
59608;BME280;45426;44.726;10.390;2022-12-26T10:06:48;101562.06;;;22.50;100.00
59608;BME280;45426;44.726;10.390;2022-12-26T10:15:02;101570.69;;;20.54;100.00
59608;BME280;45426;44.726;10.390;2022-12-26T10:17:49;101564.78;;;17.95;100.00
59608;BME280;45426;44.726;10.390;2022-12-26T10:25:59;101562.69;;;16.50;100.00
59608;BME280;45426;44.726;10.390;2022-12-26T10:28:44;101555.38;;;16.55;100.00
59608;BME280;45426;44.726;10.390;2022-12-26T10:31:30;101558.25;;;16.21;100.00
59608;BME280;45426;44.726;10.390;2022-12-26T10:34:26;101549.03;;;16.01;100.00
59608;BME280;45426;44.726;10.390;2022-12-26T10:36:58;101548.34;;;16.82;100.00
59608;BME280;45426;44.726;10.390;2022-12-26T10:39:43;101542.34;;;16.64;100.00
59608;BME280;45426;44.726;10.390;2022-12-26T10:42:51;101539.81;;;16.59;100.00
59608;BME280;45426;44.726;10.390;2022-12-26T10:45:43;101528.34;;;16.94;100.00
59608;BME280;45426;44.726;10.390;2022-12-26T10:48:13;101538.97;;;15.47;100.00
59608;BME280;45426;44.726;10.390;2022-12-26T10:50:45;101537.94;;;16.22;100.00
59608;BME280;45426;44.726;10.390;2022-12-26T10:53:13;101531.91;;;14.92;100.00
59608;BME280;45426;44.726;10.390;2022-12-26T10:55:43;101534.84;;;16.24;100.00
59608;BME280;45426;44.726;10.390;2022-12-26T10:58:21;101529.06;;;15.55;100.00
59608;BME280;45426;44.726;10.390;2022-12-26T11:01:08;101528.59;;;15.65;100.00
59608;BME280;45426;44.726;10.390;2022-12-26T11:03:33;101530.59;;;14.98;100.00
59608;BME280;45426;44.726;10.390;2022-12-26T11:06:03;101535.09;;;15.94;100.00
59608;BME280;45426;44.726;10.390;2022-12-26T11:08:39;101540.84;;;14.80;100.00
59608;BME280;45426;44.726;10.390;2022-12-26T11:11:20;101539.03;;;14.33;100.00
59608;BME280;45426;44.726;10.390;2022-12-26T11:13:59;101527.88;;;16.26;100.00
59608;BME280;45426;44.726;10.390;2022-12-26T11:16:37;101520.91;;;16.17;100.00
59608;BME280;45426;44.726;10.390;2022-12-26T11:19:43;101526.50;;;15.83;100.00
59608;BME280;45426;44.726;10.390;2022-12-26T11:22:27;101520.44;;;14.78;100.00
59608;BME280;45426;44.726;10.390;2022-12-26T11:27:39;101508.88;;;14.93;100.00
59608;BME280;45426;44.726;10.390;2022-12-26T11:30:18;101511.19;;;15.03;100.00
59608;BME280;45426;44.726;10.390;2022-12-26T11:33:03;101502.72;;;14.54;100.00
59608;BME280;45426;44.726;10.390;2022-12-26T11:35:30;101497.38;;;15.33;100.00
59608;BME280;45426;44.726;10.390;2022-12-26T11:38:10;101494.13;;;15.06;100.00
59608;BME280;45426;44.726;10.390;2022-12-26T11:41:07;101495.03;;;15.10;100.00
59608;BME280;45426;44.726;10.390;2022-12-26T11:44:19;101490.53;;;14.93;100.00
59608;BME280;45426;44.726;10.390;2022-12-26T11:46:59;101491.19;;;14.90;100.00
59608;BME280;45426;44.726;10.390;2022-12-26T11:49:33;101487.84;;;16.50;100.00
59608;BME280;45426;44.726;10.390;2022-12-26T11:52:37;101484.00;;;16.39;100.00
59608;BME280;45426;44.726;10.390;2022-12-26T11:58:15;101486.84;;;15.56;100.00
59608;BME280;45426;44.726;10.390;2022-12-26T12:03:39;101489.31;;;15.37;100.00
59608;BME280;45426;44.726;10.390;2022-12-26T12:16:35;101491.50;;;15.43;100.00
59608;BME280;45426;44.726;10.390;2022-12-26T12:33:46;101483.38;;;15.34;100.00
59608;BME280;45426;44.726;10.390;2022-12-26T12:36:19;101472.63;;;14.96;100.00
59608;BME280;45426;44.726;10.390;2022-12-26T12:47:44;101489.56;;;13.96;100.00
59608;BME280;45426;44.726;10.390;2022-12-26T12:50:22;101498.97;;;14.08;100.00
59608;BME280;45426;44.726;10.390;2022-12-26T13:01:18;101489.75;;;13.53;100.00
59608;BME280;45426;44.726;10.390;2022-12-26T13:04:10;101480.03;;;14.03;100.00
59608;BME280;45426;44.726;10.390;2022-12-26T13:06:49;101485.19;;;14.04;100.00
59608;BME280;45426;44.726;10.390;2022-12-26T13:09:20;101484.75;;;14.23;100.00
59608;BME280;45426;44.726;10.390;2022-12-26T13:12:00;101481.19;;;13.63;100.00
59608;BME280;45426;44.726;10.390;2022-12-26T13:14:35;101480.16;;;14.15;100.00
59608;BME280;45426;44.726;10.390;2022-12-26T13:17:10;101476.78;;;13.79;100.00
59608;BME280;45426;44.726;10.390;2022-12-26T13:19:53;101478.16;;;13.94;100.00
59608;BME280;45426;44.726;10.390;2022-12-26T13:22:28;101468.44;;;14.35;100.00
59608;BME280;45426;44.726;10.390;2022-12-26T13:25:15;101468.28;;;14.32;100.00
59608;BME280;45426;44.726;10.390;2022-12-26T13:27:42;101468.53;;;14.48;100.00
59608;BME280;45426;44.726;10.390;2022-12-26T13:30:12;101467.88;;;13.91;100.00
59608;BME280;45426;44.726;10.390;2022-12-26T13:32:39;101458.75;;;14.38;100.00
59608;BME280;45426;44.726;10.390;2022-12-26T13:38:11;101456.13;;;14.00;100.00
59608;BME280;45426;44.726;10.390;2022-12-26T13:40:37;101475.66;;;13.81;100.00
59608;BME280;45426;44.726;10.390;2022-12-26T13:43:22;101471.41;;;13.62;100.00
59608;BME280;45426;44.726;10.390;2022-12-26T13:46:36;101468.59;;;13.79;100.00
59608;BME280;45426;44.726;10.390;2022-12-26T13:49:39;101457.81;;;14.34;100.00
59608;BME280;45426;44.726;10.390;2022-12-26T13:57:43;101462.69;;;14.28;100.00
59608;BME280;45426;44.726;10.390;2022-12-26T14:00:23;101468.41;;;13.85;100.00
59608;BME280;45426;44.726;10.390;2022-12-26T14:09:01;101451.44;;;13.70;100.00
59608;BME280;45426;44.726;10.390;2022-12-26T14:11:57;101460.00;;;13.60;100.00
59608;BME280;45426;44.726;10.390;2022-12-26T14:17:18;101453.00;;;13.80;100.00
59608;BME280;45426;44.726;10.390;2022-12-26T14:22:47;101456.53;;;13.42;100.00
59608;BME280;45426;44.726;10.390;2022-12-26T14:35:17;101477.56;;;13.24;100.00
59608;BME280;45426;44.726;10.390;2022-12-26T14:38:18;101482.88;;;13.47;100.00
59608;BME280;45426;44.726;10.390;2022-12-26T14:43:30;101472.94;;;13.81;100.00
59608;BME280;45426;44.726;10.390;2022-12-26T14:45:57;101484.34;;;13.18;100.00
59608;BME280;45426;44.726;10.390;2022-12-26T14:48:44;101484.00;;;13.11;100.00
59608;BME280;45426;44.726;10.390;2022-12-26T14:53:46;101478.72;;;13.23;100.00
59608;BME280;45426;44.726;10.390;2022-12-26T14:56:33;101487.72;;;13.32;100.00
59608;BME280;45426;44.726;10.390;2022-12-26T14:59:44;101479.03;;;13.21;100.00
59608;BME280;45426;44.726;10.390;2022-12-26T15:02:30;101478.25;;;13.12;100.00
59608;BME280;45426;44.726;10.390;2022-12-26T15:05:09;101474.22;;;13.18;100.00
59608;BME280;45426;44.726;10.390;2022-12-26T15:08:17;101478.22;;;13.38;100.00
59608;BME280;45426;44.726;10.390;2022-12-26T15:10:59;101474.88;;;13.15;100.00
59608;BME280;45426;44.726;10.390;2022-12-26T15:13:41;101477.56;;;13.24;100.00
59608;BME280;45426;44.726;10.390;2022-12-26T15:22:30;101481.47;;;12.97;100.00
59608;BME280;45426;44.726;10.390;2022-12-26T15:28:38;101482.13;;;13.11;100.00
59608;BME280;45426;44.726;10.390;2022-12-26T15:33:39;101491.44;;;12.84;100.00
59608;BME280;45426;44.726;10.390;2022-12-26T15:36:18;101489.03;;;12.91;100.00
59608;BME280;45426;44.726;10.390;2022-12-26T15:39:02;101488.38;;;12.94;100.00
59608;BME280;45426;44.726;10.390;2022-12-26T15:44:16;101494.31;;;12.79;100.00
59608;BME280;45426;44.726;10.390;2022-12-26T15:49:50;101482.44;;;12.84;100.00
59608;BME280;45426;44.726;10.390;2022-12-26T15:52:38;101485.66;;;12.68;100.00
59608;BME280;45426;44.726;10.390;2022-12-26T15:55:15;101481.97;;;12.73;100.00
59608;BME280;45426;44.726;10.390;2022-12-26T16:11:28;101472.97;;;12.63;100.00
59608;BME280;45426;44.726;10.390;2022-12-26T16:14:01;101475.25;;;12.70;100.00
59608;BME280;45426;44.726;10.390;2022-12-26T16:16:32;101476.03;;;12.53;100.00
59608;BME280;45426;44.726;10.390;2022-12-26T16:19:21;101480.63;;;12.27;100.00
59608;BME280;45426;44.726;10.390;2022-12-26T16:21:53;101474.91;;;12.80;100.00
59608;BME280;45426;44.726;10.390;2022-12-26T16:24:39;101481.56;;;12.04;100.00
59608;BME280;45426;44.726;10.390;2022-12-26T16:27:07;101464.47;;;12.21;100.00
59608;BME280;45426;44.726;10.390;2022-12-26T16:29:44;101463.50;;;12.52;100.00
59608;BME280;45426;44.726;10.390;2022-12-26T16:32:21;101460.31;;;11.84;100.00
59608;BME280;45426;44.726;10.390;2022-12-26T16:34:48;101462.66;;;12.17;100.00
59608;BME280;45426;44.726;10.390;2022-12-26T16:37:18;101454.28;;;11.96;100.00
59608;BME280;45426;44.726;10.390;2022-12-26T16:40:20;101461.53;;;12.09;100.00
59608;BME280;45426;44.726;10.390;2022-12-26T16:42:57;101458.66;;;12.14;100.00
59608;BME280;45426;44.726;10.390;2022-12-26T16:45:23;101458.69;;;12.32;100.00
59608;BME280;45426;44.726;10.390;2022-12-26T16:47:52;101450.84;;;12.39;100.00
59608;BME280;45426;44.726;10.390;2022-12-26T16:50:29;101443.13;;;12.23;100.00
59608;BME280;45426;44.726;10.390;2022-12-26T16:53:10;101441.84;;;11.72;100.00
59608;BME280;45426;44.726;10.390;2022-12-26T16:55:39;101449.66;;;12.05;100.00
59608;BME280;45426;44.726;10.390;2022-12-26T16:58:26;101445.22;;;12.27;100.00
59608;BME280;45426;44.726;10.390;2022-12-26T17:01:22;101456.53;;;11.62;100.00
59608;BME280;45426;44.726;10.390;2022-12-26T17:03:57;101447.69;;;11.88;100.00
59608;BME280;45426;44.726;10.390;2022-12-26T17:06:29;101447.28;;;11.72;100.00
59608;BME280;45426;44.726;10.390;2022-12-26T17:09:10;101444.50;;;11.95;100.00
59608;BME280;45426;44.726;10.390;2022-12-26T17:11:39;101449.25;;;11.89;100.00
59608;BME280;45426;44.726;10.390;2022-12-26T17:14:24;101462.34;;;11.70;100.00
59608;BME280;45426;44.726;10.390;2022-12-26T17:19:44;101451.34;;;11.83;100.00
59608;BME280;45426;44.726;10.390;2022-12-26T17:25:34;101453.69;;;11.76;100.00
59608;BME280;45426;44.726;10.390;2022-12-26T17:30:45;101454.50;;;11.37;100.00
59608;BME280;45426;44.726;10.390;2022-12-26T17:36:16;101443.31;;;11.38;100.00
59608;BME280;45426;44.726;10.390;2022-12-26T17:38:49;101439.38;;;11.22;100.00
59608;BME280;45426;44.726;10.390;2022-12-26T17:41:41;101443.25;;;11.30;100.00
59608;BME280;45426;44.726;10.390;2022-12-26T17:44:38;101430.53;;;11.48;100.00
59608;BME280;45426;44.726;10.390;2022-12-26T17:47:39;101450.16;;;11.04;100.00
59608;BME280;45426;44.726;10.390;2022-12-26T17:56:57;101442.47;;;11.06;100.00
59608;BME280;45426;44.726;10.390;2022-12-26T18:03:05;101441.31;;;10.54;100.00
59608;BME280;45426;44.726;10.390;2022-12-26T18:05:57;101442.31;;;11.03;100.00
59608;BME280;45426;44.726;10.390;2022-12-26T18:08:44;101436.38;;;10.78;100.00
59608;BME280;45426;44.726;10.390;2022-12-26T18:11:15;101441.06;;;10.14;100.00
59608;BME280;45426;44.726;10.390;2022-12-26T18:13:51;101441.56;;;10.66;100.00
59608;BME280;45426;44.726;10.390;2022-12-26T18:16:27;101434.81;;;10.63;100.00
59608;BME280;45426;44.726;10.390;2022-12-26T18:19:28;101431.78;;;10.42;100.00
59608;BME280;45426;44.726;10.390;2022-12-26T18:22:33;101439.03;;;10.19;100.00
59608;BME280;45426;44.726;10.390;2022-12-26T18:25:01;101426.28;;;10.56;100.00
59608;BME280;45426;44.726;10.390;2022-12-26T18:27:47;101445.41;;;10.01;100.00
59608;BME280;45426;44.726;10.390;2022-12-26T18:30:23;101438.16;;;9.68;100.00
59608;BME280;45426;44.726;10.390;2022-12-26T18:32:52;101427.13;;;9.51;100.00
59608;BME280;45426;44.726;10.390;2022-12-26T18:35:19;101427.06;;;9.23;100.00
59608;BME280;45426;44.726;10.390;2022-12-26T18:37:50;101414.25;;;9.43;100.00
59608;BME280;45426;44.726;10.390;2022-12-26T18:40:30;101411.84;;;9.41;100.00
59608;BME280;45426;44.726;10.390;2022-12-26T18:43:02;101417.72;;;9.16;100.00
59608;BME280;45426;44.726;10.390;2022-12-26T18:45:32;101423.97;;;9.30;100.00
59608;BME280;45426;44.726;10.390;2022-12-26T18:47:58;101423.63;;;9.18;100.00
59608;BME280;45426;44.726;10.390;2022-12-26T18:50:30;101417.44;;;9.31;100.00
59608;BME280;45426;44.726;10.390;2022-12-26T18:53:00;101407.03;;;9.66;100.00
59608;BME280;45426;44.726;10.390;2022-12-26T18:55:26;101414.84;;;9.95;100.00
59608;BME280;45426;44.726;10.390;2022-12-26T18:57:58;101407.38;;;10.15;100.00
59608;BME280;45426;44.726;10.390;2022-12-26T19:00:26;101398.97;;;9.88;100.00
59608;BME280;45426;44.726;10.390;2022-12-26T19:02:55;101413.13;;;9.85;100.00
59608;BME280;45426;44.726;10.390;2022-12-26T19:05:35;101420.88;;;9.50;100.00
59608;BME280;45426;44.726;10.390;2022-12-26T19:08:01;101433.81;;;9.26;100.00
59608;BME280;45426;44.726;10.390;2022-12-26T19:10:34;101423.31;;;9.94;100.00
59608;BME280;45426;44.726;10.390;2022-12-26T19:13:02;101408.81;;;9.84;100.00
59608;BME280;45426;44.726;10.390;2022-12-26T19:15:45;101402.97;;;10.05;100.00
59608;BME280;45426;44.726;10.390;2022-12-26T19:18:14;101412.56;;;9.00;100.00
59608;BME280;45426;44.726;10.390;2022-12-26T19:20:42;101419.25;;;8.89;100.00
59608;BME280;45426;44.726;10.390;2022-12-26T19:23:08;101414.56;;;9.69;100.00
59608;BME280;45426;44.726;10.390;2022-12-26T19:25:33;101421.06;;;9.82;100.00
59608;BME280;45426;44.726;10.390;2022-12-26T19:27:59;101419.59;;;9.89;100.00
59608;BME280;45426;44.726;10.390;2022-12-26T19:30:24;101422.09;;;9.72;100.00
59608;BME280;45426;44.726;10.390;2022-12-26T19:32:52;101409.03;;;9.60;100.00
59608;BME280;45426;44.726;10.390;2022-12-26T19:35:18;101406.63;;;9.59;100.00
59608;BME280;45426;44.726;10.390;2022-12-26T19:37:43;101418.41;;;9.07;100.00
59608;BME280;45426;44.726;10.390;2022-12-26T19:40:10;101412.94;;;8.93;100.00
59608;BME280;45426;44.726;10.390;2022-12-26T19:42:38;101414.50;;;9.13;100.00
59608;BME280;45426;44.726;10.390;2022-12-26T19:45:08;101415.75;;;9.63;100.00
59608;BME280;45426;44.726;10.390;2022-12-26T19:47:34;101424.69;;;10.05;100.00
59608;BME280;45426;44.726;10.390;2022-12-26T19:50:06;101421.97;;;10.05;100.00
59608;BME280;45426;44.726;10.390;2022-12-26T19:52:35;101426.91;;;9.75;100.00
59608;BME280;45426;44.726;10.390;2022-12-26T19:55:04;101429.13;;;9.73;100.00
59608;BME280;45426;44.726;10.390;2022-12-26T19:57:30;101427.81;;;9.98;100.00
59608;BME280;45426;44.726;10.390;2022-12-26T20:00:01;101434.06;;;9.99;100.00
59608;BME280;45426;44.726;10.390;2022-12-26T20:02:36;101425.53;;;10.28;100.00
59608;BME280;45426;44.726;10.390;2022-12-26T20:05:02;101417.03;;;10.07;100.00
59608;BME280;45426;44.726;10.390;2022-12-26T20:07:31;101418.59;;;10.36;100.00
59608;BME280;45426;44.726;10.390;2022-12-26T20:09:56;101422.44;;;10.21;100.00
59608;BME280;45426;44.726;10.390;2022-12-26T20:12:55;101424.09;;;9.52;100.00
59608;BME280;45426;44.726;10.390;2022-12-26T20:15:49;101408.94;;;9.65;100.00
59608;BME280;45426;44.726;10.390;2022-12-26T20:21:58;101411.31;;;9.95;100.00
59608;BME280;45426;44.726;10.390;2022-12-26T20:24:28;101400.31;;;10.27;100.00
59608;BME280;45426;44.726;10.390;2022-12-26T20:26:56;101400.38;;;9.72;100.00
59608;BME280;45426;44.726;10.390;2022-12-26T20:29:22;101397.97;;;9.57;100.00
59608;BME280;45426;44.726;10.390;2022-12-26T20:31:47;101397.88;;;9.62;100.00
59608;BME280;45426;44.726;10.390;2022-12-26T20:34:13;101394.06;;;10.27;100.00
59608;BME280;45426;44.726;10.390;2022-12-26T20:36:43;101384.84;;;10.51;100.00
59608;BME280;45426;44.726;10.390;2022-12-26T20:39:12;101392.22;;;10.73;100.00
59608;BME280;45426;44.726;10.390;2022-12-26T20:41:38;101380.84;;;11.33;100.00
59608;BME280;45426;44.726;10.390;2022-12-26T20:44:06;101382.25;;;10.91;100.00
59608;BME280;45426;44.726;10.390;2022-12-26T20:46:39;101376.34;;;10.88;100.00
59608;BME280;45426;44.726;10.390;2022-12-26T20:49:12;101386.84;;;10.81;100.00
59608;BME280;45426;44.726;10.390;2022-12-26T20:51:39;101382.78;;;11.01;100.00
59608;BME280;45426;44.726;10.390;2022-12-26T20:57:17;101378.38;;;10.24;100.00
59608;BME280;45426;44.726;10.390;2022-12-26T20:59:44;101380.16;;;10.28;100.00
59608;BME280;45426;44.726;10.390;2022-12-26T21:02:17;101383.97;;;9.91;100.00
59608;BME280;45426;44.726;10.390;2022-12-26T21:04:42;101389.13;;;10.29;100.00
59608;BME280;45426;44.726;10.390;2022-12-26T21:07:08;101398.31;;;10.56;100.00
59608;BME280;45426;44.726;10.390;2022-12-26T21:09:33;101389.00;;;10.48;100.00
59608;BME280;45426;44.726;10.390;2022-12-26T21:11:59;101394.75;;;10.69;100.00
59608;BME280;45426;44.726;10.390;2022-12-26T21:14:27;101401.13;;;10.64;100.00
59608;BME280;45426;44.726;10.390;2022-12-26T21:16:57;101410.38;;;10.63;100.00
59608;BME280;45426;44.726;10.390;2022-12-26T21:19:24;101396.28;;;10.84;100.00
59608;BME280;45426;44.726;10.390;2022-12-26T21:22:21;101417.53;;;11.04;100.00
59608;BME280;45426;44.726;10.390;2022-12-26T21:25:16;101412.91;;;10.82;100.00
59608;BME280;45426;44.726;10.390;2022-12-26T21:28:00;101436.19;;;10.97;100.00
59608;BME280;45426;44.726;10.390;2022-12-26T21:30:26;101429.50;;;11.03;100.00
59608;BME280;45426;44.726;10.390;2022-12-26T21:32:54;101429.38;;;11.08;100.00
59608;BME280;45426;44.726;10.390;2022-12-26T21:35:27;101441.88;;;10.87;100.00
59608;BME280;45426;44.726;10.390;2022-12-26T21:38:13;101460.91;;;10.87;100.00
59608;BME280;45426;44.726;10.390;2022-12-26T21:40:52;101461.13;;;11.22;100.00
59608;BME280;45426;44.726;10.390;2022-12-26T21:43:21;101468.59;;;11.07;100.00
59608;BME280;45426;44.726;10.390;2022-12-26T21:53:13;101469.25;;;11.13;100.00
59608;BME280;45426;44.726;10.390;2022-12-26T22:13:44;101483.16;;;11.12;100.00
59608;BME280;45426;44.726;10.390;2022-12-26T22:16:26;101479.88;;;11.23;100.00
59608;BME280;45426;44.726;10.390;2022-12-26T22:19:14;101476.25;;;11.05;100.00
59608;BME280;45426;44.726;10.390;2022-12-26T22:21:50;101488.41;;;10.85;100.00
59608;BME280;45426;44.726;10.390;2022-12-26T22:24:19;101497.69;;;10.48;100.00
59608;BME280;45426;44.726;10.390;2022-12-26T22:27:08;101507.06;;;10.42;100.00
59608;BME280;45426;44.726;10.390;2022-12-26T22:29:37;101495.13;;;11.11;100.00
59608;BME280;45426;44.726;10.390;2022-12-26T22:41:54;101496.47;;;10.77;100.00
59608;BME280;45426;44.726;10.390;2022-12-26T22:44:31;101500.47;;;10.93;100.00
59608;BME280;45426;44.726;10.390;2022-12-26T22:50:41;101489.69;;;11.33;100.00
59608;BME280;45426;44.726;10.390;2022-12-26T22:53:21;101485.75;;;10.94;100.00
59608;BME280;45426;44.726;10.390;2022-12-26T22:56:35;101490.88;;;10.96;100.00
59608;BME280;45426;44.726;10.390;2022-12-26T22:59:23;101488.09;;;11.10;100.00
59608;BME280;45426;44.726;10.390;2022-12-26T23:08:50;101488.47;;;11.17;100.00
59608;BME280;45426;44.726;10.390;2022-12-26T23:11:52;101478.16;;;11.05;100.00
59608;BME280;45426;44.726;10.390;2022-12-26T23:14:48;101487.41;;;10.81;100.00
59608;BME280;45426;44.726;10.390;2022-12-26T23:17:36;101476.47;;;11.18;100.00
59608;BME280;45426;44.726;10.390;2022-12-26T23:20:22;101482.28;;;10.80;100.00
59608;BME280;45426;44.726;10.390;2022-12-26T23:30:37;101494.13;;;10.61;100.00
59608;BME280;45426;44.726;10.390;2022-12-26T23:36:30;101483.13;;;10.66;100.00
